Time;durP1;ratioP1;P1;durP2;ratioP2;P2;SDS_P1;SDS_P2;PMS_P1;PMS_P2;Temp;Humidity;BMP_temperature;BMP_pressure;BME280_temperature;BME280_humidity;BME280_pressure;Samples;Min_cycle;Max_cycle;Signal;HPM_P1;HPM_P2
2023/05/29 00:01:08;;;;;;;10.20;7.70;;;15.40;99.90;;;;;;5033275;28;20540;-39
2023/05/29 00:03:36;;;;;;;13.70;7.75;;;15.40;99.90;;;;;;5033962;28;20057;-40
2023/05/29 00:06:05;;;;;;;11.68;7.18;;;15.30;99.90;;;;;;5033289;28;20042;-39
2023/05/29 00:08:33;;;;;;;8.77;7.15;;;15.30;99.90;;;;;;5034465;28;20216;-39
2023/05/29 00:11:00;;;;;;;8.48;7.25;;;15.30;99.90;;;;;;5034265;28;20521;-41
2023/05/29 00:13:27;;;;;;;8.48;7.40;;;15.20;99.90;;;;;;5032882;28;20053;-41
2023/05/29 00:15:56;;;;;;;11.48;6.82;;;15.20;99.90;;;;;;5032896;28;20386;-41
2023/05/29 00:18:23;;;;;;;9.52;7.53;;;15.10;99.90;;;;;;5031527;28;20105;-38
2023/05/29 00:20:52;;;;;;;10.52;7.82;;;15.10;99.90;;;;;;5034074;28;20076;-39
2023/05/29 00:23:21;;;;;;;8.27;7.43;;;15.10;99.90;;;;;;5038761;28;20076;-39
2023/05/29 00:25:48;;;;;;;12.75;7.18;;;15.10;99.90;;;;;;5038824;28;20107;-42
2023/05/29 00:28:16;;;;;;;9.90;7.53;;;15.10;99.90;;;;;;5039324;28;20117;-39
2023/05/29 00:30:43;;;;;;;10.65;7.75;;;15.00;99.90;;;;;;5043156;28;20534;-40
2023/05/29 00:33:10;;;;;;;8.65;7.40;;;15.00;99.90;;;;;;5041764;28;20069;-39
2023/05/29 00:35:38;;;;;;;9.05;7.50;;;15.00;99.90;;;;;;5046146;28;20042;-41
2023/05/29 00:38:05;;;;;;;9.70;7.70;;;14.90;99.90;;;;;;5046830;28;20064;-41
2023/05/29 00:40:33;;;;;;;10.05;7.72;;;14.90;99.90;;;;;;5046294;28;20113;-40
2023/05/29 00:43:02;;;;;;;11.98;8.15;;;14.90;99.90;;;;;;5051746;28;20049;-40
2023/05/29 00:45:30;;;;;;;8.90;7.30;;;14.80;99.90;;;;;;5036051;28;20053;-40
2023/05/29 00:47:58;;;;;;;10.80;7.75;;;14.80;99.90;;;;;;5039962;28;20065;-39
2023/05/29 00:50:26;;;;;;;8.57;7.72;;;14.80;99.90;;;;;;5039038;28;20061;-39
2023/05/29 00:52:54;;;;;;;9.27;6.90;;;14.70;99.90;;;;;;5038469;28;20037;-39
2023/05/29 00:55:22;;;;;;;8.60;6.70;;;14.80;99.90;;;;;;5028135;28;20041;-39
2023/05/29 00:57:50;;;;;;;8.95;7.72;;;14.70;99.90;;;;;;5030717;28;20493;-38
2023/05/29 01:00:18;;;;;;;11.35;8.00;;;14.70;99.90;;;;;;5020208;28;20049;-39
2023/05/29 01:02:46;;;;;;;12.25;7.30;;;14.70;99.90;;;;;;5022767;28;20103;-39
2023/05/29 01:05:19;;;;;;;8.18;7.30;;;14.70;99.90;;;;;;5033353;28;20076;-38
2023/05/29 01:07:46;;;;;;;9.20;7.05;;;14.70;99.90;;;;;;5020643;28;20049;-40
2023/05/29 01:10:14;;;;;;;11.02;7.40;;;14.60;99.90;;;;;;5021987;28;20093;-41
2023/05/29 01:12:59;;;;;;;9.55;7.40;;;14.60;99.90;;;;;;5040905;28;20049;-41
2023/05/29 01:16:13;;;;;;;9.00;7.10;;;14.60;99.90;;;;;;5064669;28;20109;-43
2023/05/29 01:18:59;;;;;;;9.30;7.13;;;14.60;99.90;;;;;;5017186;28;20109;-41
2023/05/29 01:21:45;;;;;;;9.68;7.45;;;14.60;99.90;;;;;;5027127;28;20041;-38
2023/05/29 01:24:34;;;;;;;8.15;6.93;;;14.60;99.90;;;;;;5036433;28;20057;-41
2023/05/29 01:27:06;;;;;;;8.65;7.28;;;14.50;99.90;;;;;;5043056;28;20045;-39
2023/05/29 01:29:34;;;;;;;9.88;7.20;;;14.50;99.90;;;;;;5037059;28;20054;-39
2023/05/29 01:32:03;;;;;;;9.15;7.75;;;14.50;99.90;;;;;;5029836;28;20050;-39
2023/05/29 01:34:30;;;;;;;7.80;6.70;;;14.50;99.90;;;;;;5027462;28;20050;-39
2023/05/29 01:36:58;;;;;;;11.45;7.57;;;14.40;99.90;;;;;;5031503;28;20058;-39
2023/05/29 01:39:26;;;;;;;8.50;7.10;;;14.40;99.90;;;;;;5030287;28;20045;-40
2023/05/29 01:41:54;;;;;;;12.27;7.45;;;14.40;99.90;;;;;;5042235;28;20068;-41
2023/05/29 01:44:23;;;;;;;11.60;7.35;;;14.30;99.90;;;;;;5045302;28;20049;-39
2023/05/29 01:46:51;;;;;;;11.85;7.55;;;14.30;99.90;;;;;;5033935;28;20050;-38
2023/05/29 01:49:19;;;;;;;10.13;7.65;;;14.30;99.90;;;;;;5036312;28;20053;-39
2023/05/29 01:51:47;;;;;;;10.68;8.27;;;14.30;99.90;;;;;;5036077;28;20056;-38
2023/05/29 01:54:14;;;;;;;10.52;7.40;;;14.20;99.90;;;;;;5030728;28;20045;-40
2023/05/29 01:56:42;;;;;;;11.18;7.97;;;14.10;99.90;;;;;;5032937;28;20458;-41
2023/05/29 01:59:17;;;;;;;10.25;7.03;;;14.10;99.90;;;;;;5048255;28;20072;-37
2023/05/29 02:01:44;;;;;;;11.38;8.07;;;14.10;99.90;;;;;;5058843;28;20033;-38
2023/05/29 02:04:12;;;;;;;9.73;7.53;;;14.00;99.90;;;;;;5051211;28;20045;-41
2023/05/29 02:06:39;;;;;;;9.27;7.53;;;14.00;99.90;;;;;;5052534;28;20056;-38
2023/05/29 02:09:07;;;;;;;11.00;7.43;;;13.90;99.90;;;;;;5045126;28;20092;-39
2023/05/29 02:11:34;;;;;;;10.30;8.05;;;13.90;99.90;;;;;;5054593;28;20049;-39
2023/05/29 02:14:03;;;;;;;9.93;7.75;;;13.80;99.90;;;;;;5031788;28;20060;-39
2023/05/29 02:16:33;;;;;;;9.27;8.00;;;13.80;99.90;;;;;;5046773;28;20052;-39
2023/05/29 02:19:02;;;;;;;10.32;7.60;;;13.70;99.90;;;;;;5052444;28;20041;-39
2023/05/29 02:21:31;;;;;;;9.32;7.72;;;13.70;99.90;;;;;;5055439;28;20059;-37
2023/05/29 02:23:58;;;;;;;9.05;7.65;;;13.70;99.90;;;;;;5044668;28;20053;-39
2023/05/29 02:26:26;;;;;;;12.02;8.00;;;13.70;99.90;;;;;;5056650;28;20045;-39
2023/05/29 02:28:53;;;;;;;11.23;7.63;;;13.70;99.90;;;;;;5053014;28;20501;-40
2023/05/29 02:31:21;;;;;;;11.75;7.70;;;13.60;99.90;;;;;;5038199;28;20049;-42
2023/05/29 02:33:48;;;;;;;9.35;7.38;;;13.60;99.90;;;;;;5046830;28;20597;-40
2023/05/29 02:36:16;;;;;;;9.98;7.80;;;13.60;99.90;;;;;;5043156;28;20541;-40
2023/05/29 02:38:44;;;;;;;9.25;7.70;;;13.60;99.90;;;;;;5043336;28;20045;-40
2023/05/29 02:41:11;;;;;;;9.38;7.53;;;13.50;99.90;;;;;;5047237;28;20053;-41
2023/05/29 02:43:38;;;;;;;11.50;8.27;;;13.50;99.90;;;;;;5044649;28;20060;-40
2023/05/29 02:46:06;;;;;;;12.30;7.80;;;13.40;99.90;;;;;;5052797;28;20056;-39
2023/05/29 02:48:33;;;;;;;11.40;7.78;;;13.40;99.90;;;;;;5041658;28;20080;-39
2023/05/29 02:51:00;;;;;;;9.77;7.72;;;13.30;99.90;;;;;;5057528;28;20079;-43
2023/05/29 02:53:28;;;;;;;11.07;7.97;;;13.30;99.90;;;;;;5060421;28;20041;-42
2023/05/29 02:55:55;;;;;;;9.43;7.72;;;13.20;99.90;;;;;;5067366;28;20041;-40
2023/05/29 02:58:22;;;;;;;10.73;7.72;;;13.20;99.90;;;;;;5052336;28;20049;-39
2023/05/29 03:00:50;;;;;;;8.95;7.38;;;13.20;99.90;;;;;;5045666;28;20048;-39
2023/05/29 03:03:19;;;;;;;12.57;7.57;;;13.20;99.90;;;;;;5047957;28;20055;-40
2023/05/29 03:05:47;;;;;;;10.80;7.93;;;13.10;99.90;;;;;;5048869;28;20109;-40
2023/05/29 03:08:14;;;;;;;10.18;8.18;;;13.10;99.90;;;;;;5041240;28;20051;-40
2023/05/29 03:10:43;;;;;;;8.88;7.57;;;13.10;99.90;;;;;;5041729;28;20041;-36
2023/05/29 03:13:11;;;;;;;10.30;7.40;;;13.10;99.90;;;;;;5042286;28;20136;-38
2023/05/29 03:15:47;;;;;;;9.57;7.72;;;13.00;99.90;;;;;;5041360;28;20049;-38
2023/05/29 03:18:15;;;;;;;9.13;7.22;;;13.00;99.90;;;;;;5062240;28;20041;-38
2023/05/29 03:20:43;;;;;;;9.27;7.57;;;12.90;99.90;;;;;;5040399;28;20045;-38
2023/05/29 03:23:11;;;;;;;13.30;8.25;;;12.90;99.90;;;;;;5049852;28;20139;-41
2023/05/29 03:25:38;;;;;;;10.85;7.72;;;12.90;99.90;;;;;;5048717;28;20049;-40
2023/05/29 03:28:06;;;;;;;10.23;7.40;;;12.90;99.90;;;;;;5052501;28;20105;-40
2023/05/29 03:30:34;;;;;;;9.88;7.78;;;12.90;99.90;;;;;;5047065;28;20049;-37
2023/05/29 03:33:03;;;;;;;11.07;7.47;;;12.90;99.90;;;;;;5052524;28;20106;-40
2023/05/29 03:36:09;;;;;;;9.27;7.68;;;12.90;99.90;;;;;;5024871;28;20514;-42
2023/05/29 03:38:36;;;;;;;9.27;7.10;;;12.90;99.90;;;;;;5046394;28;20045;-39
2023/05/29 03:41:04;;;;;;;10.40;7.75;;;12.90;99.90;;;;;;5058967;28;20072;-40
2023/05/29 03:43:32;;;;;;;9.02;7.57;;;12.90;99.90;;;;;;5051102;28;20056;-39
2023/05/29 03:46:00;;;;;;;8.55;7.38;;;12.90;99.90;;;;;;5045418;28;20109;-42
2023/05/29 03:48:29;;;;;;;13.02;8.15;;;12.90;99.90;;;;;;5033048;28;20576;-37
2023/05/29 03:50:57;;;;;;;9.07;7.60;;;12.90;99.90;;;;;;5021577;28;20364;-39
2023/05/29 03:53:30;;;;;;;11.93;8.40;;;12.90;99.90;;;;;;5048748;28;20048;-39
2023/05/29 03:55:58;;;;;;;11.60;8.30;;;12.90;99.90;;;;;;5050935;28;20045;-42
2023/05/29 03:58:25;;;;;;;13.70;7.82;;;12.90;99.90;;;;;;5067197;28;20049;-41
2023/05/29 04:00:53;;;;;;;8.75;7.75;;;12.90;99.90;;;;;;5052096;28;20041;-37
2023/05/29 04:03:21;;;;;;;8.30;7.40;;;12.90;99.90;;;;;;5036479;28;20056;-40
2023/05/29 04:05:49;;;;;;;9.40;7.50;;;13.00;99.90;;;;;;5045955;28;20084;-39
2023/05/29 04:08:17;;;;;;;9.52;7.30;;;13.00;99.90;;;;;;5046532;28;20092;-39
2023/05/29 04:10:44;;;;;;;10.85;7.65;;;13.00;99.90;;;;;;5046876;28;20131;-39
2023/05/29 04:13:11;;;;;;;9.73;7.97;;;13.10;99.90;;;;;;5052436;28;20128;-40
2023/05/29 04:15:39;;;;;;;12.48;8.05;;;13.10;99.90;;;;;;5046864;28;20045;-40
2023/05/29 04:18:06;;;;;;;12.65;8.75;;;13.20;99.90;;;;;;5055546;28;20203;-43
2023/05/29 04:20:34;;;;;;;12.10;8.40;;;13.30;99.90;;;;;;5049009;28;20171;-39
2023/05/29 04:23:03;;;;;;;10.10;7.88;;;13.30;99.90;;;;;;5056310;28;20057;-39
2023/05/29 04:25:30;;;;;;;13.10;8.27;;;13.30;99.90;;;;;;5050614;28;20063;-39
2023/05/29 04:27:57;;;;;;;9.45;7.55;;;13.40;99.90;;;;;;5056436;28;20056;-38
2023/05/29 04:30:25;;;;;;;13.60;8.05;;;13.40;99.90;;;;;;5047543;28;20116;-40
2023/05/29 04:32:53;;;;;;;11.05;7.95;;;13.50;99.90;;;;;;5046460;28;20064;-37
2023/05/29 04:35:22;;;;;;;10.52;8.48;;;13.60;99.90;;;;;;5050463;28;20067;-40
2023/05/29 04:37:56;;;;;;;11.48;7.97;;;13.70;99.90;;;;;;5055229;28;20052;-40
2023/05/29 04:40:26;;;;;;;11.00;8.82;;;13.70;99.90;;;;;;5050624;28;20053;-40
2023/05/29 04:42:54;;;;;;;9.85;7.90;;;13.80;99.90;;;;;;5056954;28;20041;-40
2023/05/29 04:45:22;;;;;;;11.18;8.02;;;13.90;99.90;;;;;;5070200;28;20041;-39
2023/05/29 04:47:53;;;;;;;14.48;8.73;;;13.90;99.90;;;;;;5031944;28;20555;-40
2023/05/29 04:50:22;;;;;;;11.90;7.85;;;14.00;99.90;;;;;;5038837;28;20410;-38
2023/05/29 04:52:51;;;;;;;10.05;7.80;;;14.00;99.90;;;;;;5038540;28;20045;-41
2023/05/29 04:55:18;;;;;;;10.25;7.95;;;14.10;99.90;;;;;;5032119;28;20064;-39
2023/05/29 04:57:46;;;;;;;14.70;8.20;;;14.20;99.90;;;;;;5042251;28;20053;-39
2023/05/29 05:00:14;;;;;;;12.68;8.27;;;14.30;99.90;;;;;;5040287;28;20100;-40
2023/05/29 05:02:44;;;;;;;14.80;8.45;;;14.30;99.90;;;;;;5058418;28;20036;-41
2023/05/29 05:05:13;;;;;;;11.20;8.15;;;14.40;99.90;;;;;;5056728;28;20041;-38
2023/05/29 05:07:40;;;;;;;8.80;7.50;;;14.50;99.90;;;;;;5056195;28;20089;-41
2023/05/29 05:10:08;;;;;;;13.75;7.22;;;14.60;99.90;;;;;;5055118;28;20054;-41
2023/05/29 05:12:36;;;;;;;9.82;8.10;;;14.70;99.90;;;;;;5059421;28;20132;-42
2023/05/29 05:15:05;;;;;;;10.23;7.75;;;14.70;99.90;;;;;;5058774;28;20542;-40
2023/05/29 05:17:33;;;;;;;9.57;7.32;;;14.70;99.90;;;;;;5057217;28;20147;-40
2023/05/29 05:20:01;;;;;;;10.05;7.80;;;14.80;99.90;;;;;;5059904;28;20038;-41
2023/05/29 05:22:29;;;;;;;13.38;8.50;;;14.80;99.90;;;;;;5056125;28;20057;-43
2023/05/29 05:24:57;;;;;;;10.63;7.53;;;14.90;99.90;;;;;;5045146;28;20132;-39
2023/05/29 05:27:25;;;;;;;11.93;7.72;;;15.00;99.90;;;;;;5048254;28;20053;-39
2023/05/29 05:29:53;;;;;;;8.93;7.05;;;15.10;99.90;;;;;;5038116;28;20056;-40
2023/05/29 05:32:20;;;;;;;9.82;7.95;;;15.10;99.90;;;;;;5042523;28;20048;-39
2023/05/29 05:34:55;;;;;;;11.13;6.80;;;15.20;99.90;;;;;;5042827;28;20064;-40
2023/05/29 05:37:23;;;;;;;8.05;7.10;;;15.20;99.90;;;;;;5048413;28;20052;-43
2023/05/29 05:39:53;;;;;;;9.23;7.15;;;15.30;99.90;;;;;;5047821;28;20434;-39
2023/05/29 05:42:20;;;;;;;10.57;6.88;;;15.30;99.90;;;;;;5026350;28;20075;-39
2023/05/29 05:44:53;;;;;;;8.32;6.80;;;15.50;99.90;;;;;;5033913;28;20533;-38
2023/05/29 05:47:20;;;;;;;10.65;7.05;;;15.50;99.90;;;;;;5049504;28;20049;-40
2023/05/29 05:49:49;;;;;;;9.38;7.50;;;15.60;99.90;;;;;;5042561;28;20053;-40
2023/05/29 05:52:17;;;;;;;10.02;7.40;;;15.70;99.90;;;;;;5033216;28;20080;-38
2023/05/29 05:54:45;;;;;;;9.35;6.95;;;15.70;99.90;;;;;;5046946;28;20041;-39
2023/05/29 05:57:13;;;;;;;9.13;7.05;;;15.80;99.90;;;;;;5051913;28;20037;-39
2023/05/29 05:59:41;;;;;;;7.85;6.50;;;15.90;99.90;;;;;;5025227;28;20505;-37
2023/05/29 06:02:08;;;;;;;11.23;6.88;;;16.00;99.90;;;;;;5032008;28;20137;-37
2023/05/29 06:04:36;;;;;;;9.18;6.88;;;16.10;99.90;;;;;;5027298;28;20446;-37
2023/05/29 06:07:04;;;;;;;10.90;7.35;;;16.20;99.90;;;;;;5050579;28;22276;-41
2023/05/29 06:09:32;;;;;;;9.82;7.55;;;16.30;99.90;;;;;;5052295;28;20664;-39
2023/05/29 06:12:00;;;;;;;8.65;7.07;;;16.40;99.90;;;;;;5028260;28;20059;-39
2023/05/29 06:14:28;;;;;;;11.55;6.90;;;16.50;99.90;;;;;;5044893;28;20099;-40
2023/05/29 06:16:56;;;;;;;9.60;7.15;;;16.50;99.90;;;;;;5029012;28;20041;-39
2023/05/29 06:19:25;;;;;;;8.63;7.18;;;16.60;99.90;;;;;;5046265;28;20045;-40
2023/05/29 06:21:59;;;;;;;9.25;6.90;;;16.70;99.90;;;;;;5060686;28;20041;-41
2023/05/29 06:24:29;;;;;;;10.48;7.13;;;16.80;99.90;;;;;;5048935;28;20053;-43
2023/05/29 06:26:56;;;;;;;11.55;7.32;;;16.90;99.90;;;;;;5033549;28;20099;-41
2023/05/29 06:29:24;;;;;;;10.05;6.88;;;17.10;99.90;;;;;;5042931;28;20452;-40
2023/05/29 06:31:51;;;;;;;10.15;6.75;;;17.20;99.90;;;;;;5051712;28;20088;-40
2023/05/29 06:34:19;;;;;;;11.43;7.13;;;17.30;99.90;;;;;;5037971;28;20055;-40
2023/05/29 06:36:47;;;;;;;9.95;7.63;;;17.40;99.90;;;;;;5043614;28;20048;-38
2023/05/29 06:39:15;;;;;;;12.60;7.93;;;17.50;99.90;;;;;;5048806;28;20052;-37
2023/05/29 06:41:43;;;;;;;9.55;6.95;;;17.60;99.90;;;;;;5053652;28;20258;-38
2023/05/29 06:44:17;;;;;;;10.80;6.97;;;17.70;99.90;;;;;;5051119;28;20048;-39
2023/05/29 06:46:44;;;;;;;9.38;6.55;;;17.80;99.90;;;;;;5051365;28;20046;-38
2023/05/29 06:49:12;;;;;;;10.75;6.60;;;17.90;99.90;;;;;;5043413;28;20037;-42
2023/05/29 06:51:39;;;;;;;7.90;6.38;;;18.00;99.90;;;;;;5039845;28;20042;-40
2023/05/29 06:54:22;;;;;;;8.05;6.40;;;18.10;99.90;;;;;;5038628;28;20041;-36
2023/05/29 06:56:50;;;;;;;6.90;6.20;;;18.30;99.90;;;;;;5039482;28;20049;-41
2023/05/29 06:59:36;;;;;;;7.15;5.82;;;18.40;99.90;;;;;;5044765;28;20532;-42
2023/05/29 07:02:05;;;;;;;7.43;6.38;;;18.50;99.90;;;;;;5039187;28;20064;-40
2023/05/29 07:04:33;;;;;;;8.35;6.00;;;18.60;99.90;;;;;;5058221;28;20045;-37
2023/05/29 07:07:00;;;;;;;11.65;6.45;;;18.70;99.90;;;;;;5052030;28;20099;-40
2023/05/29 07:09:27;;;;;;;8.77;6.65;;;18.80;99.90;;;;;;5054570;28;20108;-39
2023/05/29 07:11:56;;;;;;;12.95;6.10;;;18.90;99.90;;;;;;5047631;28;20508;-38
2023/05/29 07:14:23;;;;;;;8.77;5.63;;;19.00;99.90;;;;;;5048896;28;20049;-42
2023/05/29 07:16:51;;;;;;;9.15;5.57;;;19.10;99.90;;;;;;5043319;28;20424;-39
2023/05/29 07:19:19;;;;;;;8.35;6.10;;;19.20;99.90;;;;;;5033380;28;20068;-39
2023/05/29 07:21:49;;;;;;;8.00;6.15;;;19.30;99.90;;;;;;5040655;28;20041;-40
2023/05/29 07:24:19;;;;;;;6.30;5.70;;;19.50;99.90;;;;;;5049083;28;20041;-39
2023/05/29 07:26:47;;;;;;;8.65;6.30;;;19.50;99.90;;;;;;5059088;28;20420;-39
2023/05/29 07:29:16;;;;;;;11.90;6.32;;;19.60;99.90;;;;;;5050043;28;20128;-40
2023/05/29 07:31:44;;;;;;;10.50;7.65;;;19.60;99.90;;;;;;5038626;28;20053;-39
2023/05/29 07:34:12;;;;;;;11.88;7.60;;;19.70;99.90;;;;;;5040195;28;20072;-41
2023/05/29 07:37:06;;;;;;;13.50;6.45;;;19.90;99.90;;;;;;5045720;28;20045;-40
2023/05/29 07:39:35;;;;;;;6.97;6.05;;;20.00;99.90;;;;;;5034143;28;20057;-38
2023/05/29 07:42:12;;;;;;;7.90;5.53;;;20.10;99.90;;;;;;5032895;28;20075;-39
2023/05/29 07:44:42;;;;;;;7.32;5.25;;;20.20;99.90;;;;;;5041304;28;20123;-39
2023/05/29 07:47:10;;;;;;;6.95;5.88;;;20.30;99.90;;;;;;5028254;28;20514;-42
2023/05/29 07:49:44;;;;;;;7.88;6.22;;;20.30;99.90;;;;;;5037971;28;20045;-43
2023/05/29 07:52:12;;;;;;;10.85;6.07;;;20.40;99.90;;;;;;5032604;28;20056;-38
2023/05/29 07:54:41;;;;;;;9.52;5.97;;;20.50;99.90;;;;;;5039084;28;20065;-38
2023/05/29 07:57:09;;;;;;;11.55;6.07;;;20.50;99.90;;;;;;5024549;28;20399;-38
2023/05/29 07:59:42;;;;;;;12.32;8.90;;;20.70;99.90;;;;;;5026317;28;20092;-40
2023/05/29 08:02:11;;;;;;;9.80;6.53;;;20.80;99.90;;;;;;5046039;28;20047;-39
2023/05/29 08:05:08;;;;;;;8.32;6.50;;;20.90;99.90;;;;;;4947247;28;20567;-39
2023/05/29 08:07:37;;;;;;;7.72;5.85;;;21.00;99.90;;;;;;4948418;28;20092;-39
2023/05/29 08:10:05;;;;;;;11.45;6.30;;;21.00;99.90;;;;;;4937173;28;20051;-38
2023/05/29 08:12:34;;;;;;;7.78;5.60;;;21.10;99.90;;;;;;4949862;28;20047;-37
2023/05/29 08:15:03;;;;;;;7.78;5.40;;;21.10;98.80;;;;;;4946987;28;20067;-37
2023/05/29 08:17:30;;;;;;;9.98;5.80;;;21.10;98.60;;;;;;4962277;28;20137;-40
2023/05/29 08:19:58;;;;;;;8.18;5.93;;;21.20;99.00;;;;;;4962647;28;20090;-40
2023/05/29 08:22:29;;;;;;;7.55;5.57;;;21.20;98.60;;;;;;4961794;28;20449;-46
2023/05/29 08:24:57;;;;;;;8.75;6.63;;;21.40;97.80;;;;;;4956072;28;20070;-40
2023/05/29 08:27:24;;;;;;;8.75;6.07;;;21.50;95.90;;;;;;4955450;28;20051;-42
2023/05/29 08:29:51;;;;;;;8.30;5.95;;;21.60;95.40;;;;;;4952366;28;20130;-41
2023/05/29 08:32:19;;;;;;;8.20;5.20;;;21.70;95.00;;;;;;4952257;28;20058;-44
2023/05/29 08:34:46;;;;;;;10.20;5.30;;;21.80;95.00;;;;;;4950838;28;20139;-42
2023/05/29 08:37:14;;;;;;;6.10;5.45;;;21.90;93.80;;;;;;4951804;28;20152;-42
2023/05/29 08:39:41;;;;;;;8.88;6.03;;;21.90;93.20;;;;;;4952636;28;20066;-43
2023/05/29 08:42:14;;;;;;;8.25;6.32;;;22.00;92.90;;;;;;5011001;28;20043;-43
2023/05/29 08:44:46;;;;;;;9.63;6.10;;;22.00;93.10;;;;;;5027626;28;20057;-42
2023/05/29 08:47:20;;;;;;;9.25;5.82;;;22.00;92.30;;;;;;5030976;28;20092;-39
2023/05/29 08:49:53;;;;;;;7.05;5.72;;;22.00;92.50;;;;;;5031523;28;20060;-43
2023/05/29 08:52:24;;;;;;;9.65;7.05;;;22.10;92.30;;;;;;5030747;28;20049;-43
2023/05/29 08:54:52;;;;;;;7.68;5.50;;;22.20;92.00;;;;;;5036040;28;20064;-41
2023/05/29 08:57:23;;;;;;;11.73;7.07;;;22.30;91.40;;;;;;5034528;28;20076;-40
2023/05/29 08:59:52;;;;;;;9.25;6.75;;;22.40;91.20;;;;;;5040406;28;20075;-42
2023/05/29 09:02:20;;;;;;;8.55;7.32;;;22.50;90.20;;;;;;5033313;28;20125;-41
2023/05/29 09:04:48;;;;;;;7.03;6.00;;;22.50;88.30;;;;;;5030084;28;20041;-43
2023/05/29 09:07:18;;;;;;;11.98;6.90;;;22.60;88.10;;;;;;5026931;28;20148;-43
2023/05/29 09:09:46;;;;;;;7.15;6.05;;;22.70;87.60;;;;;;5025746;28;20521;-38
2023/05/29 09:12:14;;;;;;;8.95;6.28;;;22.70;87.60;;;;;;5028745;28;20498;-42
2023/05/29 09:14:44;;;;;;;8.55;6.20;;;22.70;86.80;;;;;;5032197;28;20045;-44
2023/05/29 09:17:12;;;;;;;8.25;6.05;;;22.70;86.90;;;;;;5030846;28;20152;-44
2023/05/29 09:19:40;;;;;;;9.05;6.45;;;22.80;87.10;;;;;;5030552;28;20049;-41
2023/05/29 09:22:10;;;;;;;8.45;6.80;;;23.00;87.20;;;;;;5029717;28;20477;-43
2023/05/29 09:24:40;;;;;;;8.00;6.10;;;23.10;84.10;;;;;;5039115;28;20045;-41
2023/05/29 09:27:14;;;;;;;8.40;6.22;;;23.20;81.20;;;;;;5037741;28;20099;-42
2023/05/29 09:29:42;;;;;;;8.05;6.25;;;23.10;81.10;;;;;;5022704;28;20370;-49
2023/05/29 09:32:12;;;;;;;11.00;7.93;;;23.20;81.30;;;;;;5026100;28;20073;-47
2023/05/29 09:34:40;;;;;;;8.50;6.88;;;23.40;80.40;;;;;;5033190;28;20072;-46
2023/05/29 09:37:08;;;;;;;7.85;6.38;;;23.60;80.70;;;;;;5032433;28;20104;-47
2023/05/29 09:39:42;;;;;;;8.23;6.30;;;23.70;77.90;;;;;;5024959;28;20115;-49
2023/05/29 09:42:10;;;;;;;10.70;6.82;;;23.70;77.90;;;;;;5018798;28;20034;-47
2023/05/29 09:44:39;;;;;;;7.75;6.72;;;23.80;77.70;;;;;;5022999;28;20099;-46
2023/05/29 09:47:07;;;;;;;12.55;7.45;;;23.90;77.70;;;;;;5029258;28;20490;-49
2023/05/29 09:49:38;;;;;;;7.95;6.55;;;23.90;77.10;;;;;;5020880;28;20056;-48
2023/05/29 09:52:07;;;;;;;7.20;5.55;;;24.10;75.80;;;;;;5024889;28;20048;-46
2023/05/29 09:54:36;;;;;;;8.07;6.22;;;24.20;76.00;;;;;;5024077;28;20049;-45
2023/05/29 09:57:05;;;;;;;10.65;5.63;;;24.30;75.20;;;;;;5020827;28;20049;-49
2023/05/29 09:59:35;;;;;;;7.95;6.60;;;24.40;73.30;;;;;;5029804;28;20516;-47
2023/05/29 10:02:04;;;;;;;10.00;6.20;;;24.50;73.30;;;;;;5026190;28;20441;-47
2023/05/29 10:04:32;;;;;;;7.85;5.70;;;24.50;71.90;;;;;;5038816;28;20492;-50
2023/05/29 10:07:16;;;;;;;10.75;5.90;;;24.60;70.90;;;;;;5034919;28;20037;-55
2023/05/29 10:09:48;;;;;;;9.88;6.13;;;24.70;70.50;;;;;;5033193;28;20675;-47
2023/05/29 10:12:20;;;;;;;9.82;5.85;;;24.80;70.10;;;;;;5024751;28;20037;-43
2023/05/29 10:14:50;;;;;;;16.55;5.72;;;24.90;69.30;;;;;;5034186;28;20042;-43
2023/05/29 10:17:22;;;;;;;7.60;5.30;;;24.90;68.40;;;;;;5035858;28;20114;-45
2023/05/29 10:19:51;;;;;;;7.90;5.75;;;24.90;68.70;;;;;;5039904;28;20045;-44
2023/05/29 10:22:24;;;;;;;6.57;5.63;;;25.20;68.40;;;;;;5023974;28;20050;-44
2023/05/29 10:24:56;;;;;;;12.40;6.22;;;25.40;67.90;;;;;;5037540;28;20058;-45
2023/05/29 10:27:26;;;;;;;7.55;5.65;;;25.60;67.00;;;;;;5035111;28;20061;-46
2023/05/29 10:30:05;;;;;;;8.30;6.30;;;25.80;66.60;;;;;;5043736;28;20049;-41
2023/05/29 10:33:10;;;;;;;7.20;5.70;;;26.00;66.00;;;;;;5037940;28;20107;-45
2023/05/29 10:35:45;;;;;;;9.23;5.72;;;26.20;64.60;;;;;;5044318;28;20485;-42
2023/05/29 10:38:16;;;;;;;7.15;5.95;;;26.30;64.60;;;;;;5046878;28;20029;-45
2023/05/29 10:40:44;;;;;;;7.38;5.50;;;26.50;64.20;;;;;;5043178;28;20127;-42
2023/05/29 10:43:32;;;;;;;8.90;5.53;;;26.60;62.90;;;;;;5034439;28;20505;-44
2023/05/29 10:46:00;;;;;;;10.18;5.82;;;26.30;62.60;;;;;;5033667;28;20087;-45
2023/05/29 10:48:40;;;;;;;9.75;5.60;;;26.40;62.70;;;;;;5046297;28;20041;-46
2023/05/29 10:51:08;;;;;;;8.55;5.82;;;26.60;62.00;;;;;;5038197;28;20133;-43
2023/05/29 10:53:40;;;;;;;8.93;5.43;;;26.80;61.90;;;;;;5036163;28;20056;-43
2023/05/29 10:56:14;;;;;;;8.43;5.50;;;27.10;61.40;;;;;;5035298;28;20095;-45
2023/05/29 10:58:42;;;;;;;7.28;5.93;;;27.30;60.10;;;;;;5032849;28;20128;-45
2023/05/29 11:01:09;;;;;;;6.75;6.05;;;27.50;58.80;;;;;;5035983;28;20250;-46
2023/05/29 11:03:37;;;;;;;6.13;5.30;;;27.80;58.30;;;;;;5050948;28;20125;-46
2023/05/29 11:06:07;;;;;;;7.72;5.57;;;28.00;58.40;;;;;;5042062;28;20465;-46
2023/05/29 11:08:42;;;;;;;6.82;6.13;;;28.10;58.00;;;;;;5042518;28;20061;-44
2023/05/29 11:11:12;;;;;;;6.50;5.85;;;28.10;57.40;;;;;;5043769;28;20156;-42
2023/05/29 11:13:40;;;;;;;8.18;5.88;;;28.30;56.90;;;;;;5051279;28;20099;-45
2023/05/29 11:16:25;;;;;;;10.82;5.70;;;28.50;57.30;;;;;;5030464;28;20076;-44
2023/05/29 11:18:53;;;;;;;5.88;5.13;;;28.40;56.60;;;;;;5028146;28;20047;-44
2023/05/29 11:21:33;;;;;;;7.40;5.57;;;28.70;56.40;;;;;;5021442;28;20132;-44
2023/05/29 11:24:03;;;;;;;7.53;5.28;;;28.90;56.60;;;;;;5041219;28;20194;-46
2023/05/29 11:26:36;;;;;;;8.45;5.47;;;28.90;57.00;;;;;;5045237;28;20055;-46
2023/05/29 11:29:06;;;;;;;9.40;6.07;;;29.10;56.30;;;;;;5041668;28;20132;-46
2023/05/29 11:31:37;;;;;;;6.82;5.60;;;29.50;55.20;;;;;;5042553;28;20056;-45
2023/05/29 11:34:05;;;;;;;6.28;5.15;;;29.60;55.10;;;;;;5045907;28;20076;-50
2023/05/29 11:36:33;;;;;;;6.80;5.50;;;29.80;55.00;;;;;;5042895;28;20595;-44
2023/05/29 11:39:01;;;;;;;7.97;5.32;;;30.20;54.70;;;;;;5036056;28;20068;-40
2023/05/29 11:41:29;;;;;;;8.38;5.72;;;30.00;53.40;;;;;;5038600;28;20108;-44
2023/05/29 11:44:05;;;;;;;7.38;5.43;;;30.30;53.20;;;;;;5037666;28;20045;-42
2023/05/29 11:46:34;;;;;;;6.50;5.90;;;30.30;53.80;;;;;;5039706;28;20079;-45
2023/05/29 11:49:01;;;;;;;6.45;5.60;;;30.50;53.10;;;;;;5028632;28;20064;-51
2023/05/29 11:51:29;;;;;;;9.60;5.90;;;30.60;53.00;;;;;;5022285;28;20080;-48
2023/05/29 11:53:59;;;;;;;8.13;5.70;;;30.70;52.70;;;;;;5047728;28;20049;-48
2023/05/29 11:56:28;;;;;;;10.27;5.68;;;30.80;52.30;;;;;;5045674;28;20042;-48
2023/05/29 11:58:59;;;;;;;6.50;5.82;;;30.80;52.30;;;;;;5037849;28;20045;-46
2023/05/29 12:01:28;;;;;;;7.57;5.32;;;31.10;51.40;;;;;;5046219;28;20132;-48
2023/05/29 12:03:56;;;;;;;7.30;5.82;;;31.40;50.90;;;;;;5040013;28;20048;-47
2023/05/29 12:06:38;;;;;;;6.53;5.80;;;31.80;50.40;;;;;;5046938;28;20069;-48
2023/05/29 12:09:05;;;;;;;6.65;5.72;;;31.80;50.10;;;;;;5038345;28;20045;-47
2023/05/29 12:11:34;;;;;;;7.90;5.50;;;32.00;49.70;;;;;;5036362;28;20072;-46
2023/05/29 12:14:02;;;;;;;7.30;5.43;;;32.20;49.20;;;;;;5041454;28;20336;-48
2023/05/29 12:16:32;;;;;;;6.35;5.40;;;32.50;48.20;;;;;;5034343;28;20065;-41
2023/05/29 12:19:00;;;;;;;5.72;5.22;;;32.70;48.00;;;;;;5038009;28;20609;-44
2023/05/29 12:21:27;;;;;;;6.20;5.50;;;32.80;46.40;;;;;;5035299;28;20045;-47
2023/05/29 12:23:55;;;;;;;6.80;5.30;;;32.90;46.90;;;;;;5043425;28;20510;-43
2023/05/29 12:26:42;;;;;;;6.70;5.72;;;33.20;46.90;;;;;;5040291;28;20057;-46
2023/05/29 12:29:09;;;;;;;8.20;5.20;;;33.70;46.10;;;;;;5045763;28;20148;-44
2023/05/29 12:31:37;;;;;;;6.35;5.75;;;33.80;46.20;;;;;;5035865;28;20041;-49
2023/05/29 12:34:09;;;;;;;12.48;5.38;;;34.10;45.40;;;;;;5036161;28;20064;-48
2023/05/29 12:36:40;;;;;;;8.10;6.00;;;34.30;45.20;;;;;;5037694;28;20045;-40
2023/05/29 12:39:08;;;;;;;5.67;5.00;;;34.30;45.50;;;;;;5049314;28;20072;-46
2023/05/29 12:41:38;;;;;;;7.88;5.70;;;34.60;44.60;;;;;;5039316;28;20096;-45
2023/05/29 12:44:07;;;;;;;6.07;5.40;;;35.20;44.30;;;;;;5045778;28;20064;-48
2023/05/29 12:46:43;;;;;;;6.88;5.70;;;35.60;43.80;;;;;;5033502;28;20053;-52
2023/05/29 12:49:15;;;;;;;5.97;4.93;;;35.50;43.20;;;;;;5048467;28;20049;-47
2023/05/29 12:51:44;;;;;;;7.30;5.63;;;35.30;43.60;;;;;;5044416;28;20076;-46
2023/05/29 12:54:16;;;;;;;7.43;4.88;;;35.40;43.20;;;;;;5041327;28;20056;-48
2023/05/29 12:56:45;;;;;;;6.03;5.50;;;35.30;43.40;;;;;;5040791;28;20037;-45